sensor_id;sensor_type;location;lat;lon;timestamp;P1;durP1;ratioP1;P2;durP2;ratioP2
68216;SDS011;55037;52.354;4.992;2023-01-16T00:01:55;28.98;;;26.48;;
68216;SDS011;55037;52.354;4.992;2023-01-16T00:04:24;30.35;;;27.58;;
68216;SDS011;55037;52.354;4.992;2023-01-16T00:06:51;30.47;;;27.77;;
68216;SDS011;55037;52.354;4.992;2023-01-16T00:09:19;30.77;;;28.08;;
68216;SDS011;55037;52.354;4.992;2023-01-16T00:11:47;30.23;;;27.63;;
68216;SDS011;55037;52.354;4.992;2023-01-16T00:14:14;31.38;;;28.58;;
68216;SDS011;55037;52.354;4.992;2023-01-16T00:16:41;31.08;;;28.38;;
68216;SDS011;55037;52.354;4.992;2023-01-16T00:19:08;31.17;;;28.52;;
68216;SDS011;55037;52.354;4.992;2023-01-16T00:21:36;31.60;;;28.63;;
68216;SDS011;55037;52.354;4.992;2023-01-16T00:24:03;30.83;;;28.13;;
68216;SDS011;55037;52.354;4.992;2023-01-16T00:26:32;29.95;;;27.33;;
68216;SDS011;55037;52.354;4.992;2023-01-16T00:29:00;32.25;;;29.33;;
68216;SDS011;55037;52.354;4.992;2023-01-16T00:31:28;33.25;;;30.30;;
68216;SDS011;55037;52.354;4.992;2023-01-16T00:33:56;31.08;;;28.35;;
68216;SDS011;55037;52.354;4.992;2023-01-16T00:36:23;33.28;;;30.27;;
68216;SDS011;55037;52.354;4.992;2023-01-16T00:38:50;32.10;;;29.23;;
68216;SDS011;55037;52.354;4.992;2023-01-16T00:41:17;32.95;;;30.08;;
68216;SDS011;55037;52.354;4.992;2023-01-16T00:43:45;32.67;;;29.80;;
68216;SDS011;55037;52.354;4.992;2023-01-16T00:46:12;33.13;;;30.15;;
68216;SDS011;55037;52.354;4.992;2023-01-16T00:48:39;31.95;;;29.05;;
68216;SDS011;55037;52.354;4.992;2023-01-16T00:51:06;34.63;;;31.35;;
68216;SDS011;55037;52.354;4.992;2023-01-16T00:53:33;34.38;;;31.15;;
68216;SDS011;55037;52.354;4.992;2023-01-16T00:56:01;33.25;;;30.25;;
68216;SDS011;55037;52.354;4.992;2023-01-16T00:58:28;34.80;;;31.70;;
68216;SDS011;55037;52.354;4.992;2023-01-16T01:00:55;32.13;;;29.13;;
68216;SDS011;55037;52.354;4.992;2023-01-16T01:03:22;31.42;;;28.63;;
68216;SDS011;55037;52.354;4.992;2023-01-16T01:05:50;32.17;;;29.38;;
68216;SDS011;55037;52.354;4.992;2023-01-16T01:08:17;31.30;;;28.50;;
68216;SDS011;55037;52.354;4.992;2023-01-16T01:10:44;30.80;;;28.20;;
68216;SDS011;55037;52.354;4.992;2023-01-16T01:13:12;30.45;;;27.88;;
68216;SDS011;55037;52.354;4.992;2023-01-16T01:15:40;31.92;;;29.13;;
68216;SDS011;55037;52.354;4.992;2023-01-16T01:18:07;31.45;;;28.75;;
68216;SDS011;55037;52.354;4.992;2023-01-16T01:20:39;30.83;;;28.20;;
68216;SDS011;55037;52.354;4.992;2023-01-16T01:23:06;31.27;;;28.52;;
68216;SDS011;55037;52.354;4.992;2023-01-16T01:25:36;29.47;;;26.90;;
68216;SDS011;55037;52.354;4.992;2023-01-16T01:28:04;30.65;;;28.00;;
68216;SDS011;55037;52.354;4.992;2023-01-16T01:30:32;31.08;;;28.33;;
68216;SDS011;55037;52.354;4.992;2023-01-16T01:32:59;28.58;;;25.98;;
68216;SDS011;55037;52.354;4.992;2023-01-16T01:35:26;31.03;;;28.33;;
68216;SDS011;55037;52.354;4.992;2023-01-16T01:37:53;29.55;;;26.73;;
68216;SDS011;55037;52.354;4.992;2023-01-16T01:40:21;29.27;;;26.80;;
68216;SDS011;55037;52.354;4.992;2023-01-16T01:42:48;27.95;;;25.55;;
68216;SDS011;55037;52.354;4.992;2023-01-16T01:45:25;28.58;;;25.92;;
68216;SDS011;55037;52.354;4.992;2023-01-16T01:48:04;29.30;;;26.70;;
68216;SDS011;55037;52.354;4.992;2023-01-16T01:53:30;29.53;;;26.53;;
68216;SDS011;55037;52.354;4.992;2023-01-16T01:56:13;29.75;;;27.13;;
68216;SDS011;55037;52.354;4.992;2023-01-16T01:58:54;28.88;;;26.15;;
68216;SDS011;55037;52.354;4.992;2023-01-16T02:01:25;28.30;;;25.70;;
68216;SDS011;55037;52.354;4.992;2023-01-16T02:03:58;31.13;;;28.10;;
68216;SDS011;55037;52.354;4.992;2023-01-16T02:06:30;32.20;;;28.95;;
68216;SDS011;55037;52.354;4.992;2023-01-16T02:09:21;31.13;;;27.93;;
68216;SDS011;55037;52.354;4.992;2023-01-16T02:12:07;31.20;;;28.20;;
68216;SDS011;55037;52.354;4.992;2023-01-16T02:14:37;29.17;;;26.37;;
68216;SDS011;55037;52.354;4.992;2023-01-16T02:17:10;30.58;;;27.63;;
68216;SDS011;55037;52.354;4.992;2023-01-16T02:28:14;31.30;;;28.02;;
68216;SDS011;55037;52.354;4.992;2023-01-16T02:31:03;31.27;;;28.08;;
68216;SDS011;55037;52.354;4.992;2023-01-16T02:41:51;30.33;;;27.23;;
68216;SDS011;55037;52.354;4.992;2023-01-16T02:49:49;29.08;;;26.00;;
68216;SDS011;55037;52.354;4.992;2023-01-16T02:52:39;29.42;;;26.52;;
68216;SDS011;55037;52.354;4.992;2023-01-16T02:55:33;30.27;;;27.33;;
68216;SDS011;55037;52.354;4.992;2023-01-16T02:58:05;33.38;;;30.02;;
68216;SDS011;55037;52.354;4.992;2023-01-16T03:00:35;33.65;;;30.02;;
68216;SDS011;55037;52.354;4.992;2023-01-16T03:03:02;33.13;;;29.48;;
68216;SDS011;55037;52.354;4.992;2023-01-16T03:05:37;34.17;;;30.67;;
68216;SDS011;55037;52.354;4.992;2023-01-16T03:08:19;33.67;;;30.15;;
68216;SDS011;55037;52.354;4.992;2023-01-16T03:11:14;34.33;;;30.38;;
68216;SDS011;55037;52.354;4.992;2023-01-16T03:14:09;34.70;;;31.23;;
68216;SDS011;55037;52.354;4.992;2023-01-16T03:22:21;32.42;;;29.08;;
68216;SDS011;55037;52.354;4.992;2023-01-16T03:25:00;33.13;;;29.60;;
68216;SDS011;55037;52.354;4.992;2023-01-16T03:33:02;33.67;;;30.37;;
68216;SDS011;55037;52.354;4.992;2023-01-16T03:35:34;33.15;;;29.67;;
68216;SDS011;55037;52.354;4.992;2023-01-16T03:38:06;30.77;;;27.60;;
68216;SDS011;55037;52.354;4.992;2023-01-16T03:40:39;30.88;;;27.98;;
68216;SDS011;55037;52.354;4.992;2023-01-16T03:43:13;31.52;;;28.40;;
68216;SDS011;55037;52.354;4.992;2023-01-16T03:51:01;31.67;;;28.27;;
68216;SDS011;55037;52.354;4.992;2023-01-16T03:53:33;32.00;;;28.57;;
68216;SDS011;55037;52.354;4.992;2023-01-16T03:58:48;30.02;;;26.98;;
68216;SDS011;55037;52.354;4.992;2023-01-16T04:04:18;29.13;;;26.13;;
68216;SDS011;55037;52.354;4.992;2023-01-16T04:07:02;27.38;;;24.65;;
68216;SDS011;55037;52.354;4.992;2023-01-16T04:09:43;26.67;;;23.13;;
68216;SDS011;55037;52.354;4.992;2023-01-16T04:12:17;25.92;;;23.55;;
68216;SDS011;55037;52.354;4.992;2023-01-16T04:14:51;24.65;;;22.45;;
68216;SDS011;55037;52.354;4.992;2023-01-16T04:17:36;25.70;;;23.23;;
68216;SDS011;55037;52.354;4.992;2023-01-16T04:20:06;24.07;;;21.87;;
68216;SDS011;55037;52.354;4.992;2023-01-16T04:22:35;23.47;;;21.20;;
68216;SDS011;55037;52.354;4.992;2023-01-16T04:25:04;23.70;;;21.60;;
68216;SDS011;55037;52.354;4.992;2023-01-16T04:27:33;22.67;;;20.55;;
68216;SDS011;55037;52.354;4.992;2023-01-16T04:30:03;23.52;;;21.42;;
68216;SDS011;55037;52.354;4.992;2023-01-16T04:32:31;21.37;;;19.40;;
68216;SDS011;55037;52.354;4.992;2023-01-16T04:34:58;23.08;;;21.05;;
68216;SDS011;55037;52.354;4.992;2023-01-16T04:37:26;21.23;;;19.23;;
68216;SDS011;55037;52.354;4.992;2023-01-16T04:39:53;23.05;;;20.98;;
68216;SDS011;55037;52.354;4.992;2023-01-16T04:42:20;21.77;;;19.70;;
68216;SDS011;55037;52.354;4.992;2023-01-16T04:44:47;21.27;;;19.30;;
68216;SDS011;55037;52.354;4.992;2023-01-16T04:47:14;22.83;;;20.57;;
68216;SDS011;55037;52.354;4.992;2023-01-16T04:49:42;21.77;;;19.80;;
68216;SDS011;55037;52.354;4.992;2023-01-16T04:52:10;22.10;;;19.90;;
68216;SDS011;55037;52.354;4.992;2023-01-16T04:54:38;22.70;;;20.58;;
68216;SDS011;55037;52.354;4.992;2023-01-16T04:57:06;23.05;;;20.77;;
68216;SDS011;55037;52.354;4.992;2023-01-16T04:59:33;22.70;;;20.55;;
68216;SDS011;55037;52.354;4.992;2023-01-16T05:02:00;22.70;;;20.60;;
68216;SDS011;55037;52.354;4.992;2023-01-16T05:04:27;23.55;;;21.33;;
68216;SDS011;55037;52.354;4.992;2023-01-16T05:06:54;21.27;;;19.38;;
68216;SDS011;55037;52.354;4.992;2023-01-16T05:09:22;23.87;;;21.67;;
68216;SDS011;55037;52.354;4.992;2023-01-16T05:11:49;22.70;;;20.52;;
68216;SDS011;55037;52.354;4.992;2023-01-16T05:14:16;21.48;;;19.67;;
68216;SDS011;55037;52.354;4.992;2023-01-16T05:16:44;22.30;;;20.27;;
68216;SDS011;55037;52.354;4.992;2023-01-16T05:19:11;22.55;;;20.48;;
68216;SDS011;55037;52.354;4.992;2023-01-16T05:21:38;23.48;;;21.35;;
68216;SDS011;55037;52.354;4.992;2023-01-16T05:24:05;23.30;;;21.13;;
68216;SDS011;55037;52.354;4.992;2023-01-16T05:26:33;23.25;;;20.67;;
68216;SDS011;55037;52.354;4.992;2023-01-16T05:29:00;23.45;;;21.10;;
68216;SDS011;55037;52.354;4.992;2023-01-16T05:31:27;22.77;;;20.73;;
68216;SDS011;55037;52.354;4.992;2023-01-16T05:33:55;22.83;;;20.65;;
68216;SDS011;55037;52.354;4.992;2023-01-16T05:36:22;24.50;;;22.00;;
68216;SDS011;55037;52.354;4.992;2023-01-16T05:38:49;23.83;;;21.70;;
68216;SDS011;55037;52.354;4.992;2023-01-16T05:41:17;23.67;;;21.48;;
68216;SDS011;55037;52.354;4.992;2023-01-16T05:43:44;21.67;;;19.63;;
68216;SDS011;55037;52.354;4.992;2023-01-16T05:46:11;23.97;;;21.97;;
68216;SDS011;55037;52.354;4.992;2023-01-16T05:48:39;22.27;;;20.17;;
68216;SDS011;55037;52.354;4.992;2023-01-16T05:51:06;22.50;;;20.33;;
68216;SDS011;55037;52.354;4.992;2023-01-16T05:53:33;20.87;;;18.90;;
68216;SDS011;55037;52.354;4.992;2023-01-16T05:56:05;21.08;;;19.02;;
68216;SDS011;55037;52.354;4.992;2023-01-16T05:58:34;23.00;;;20.77;;
68216;SDS011;55037;52.354;4.992;2023-01-16T06:01:02;22.25;;;20.35;;
68216;SDS011;55037;52.354;4.992;2023-01-16T06:03:29;20.95;;;18.95;;
68216;SDS011;55037;52.354;4.992;2023-01-16T06:05:57;22.30;;;20.23;;
68216;SDS011;55037;52.354;4.992;2023-01-16T06:08:25;22.95;;;20.90;;
68216;SDS011;55037;52.354;4.992;2023-01-16T06:10:52;23.00;;;20.80;;
68216;SDS011;55037;52.354;4.992;2023-01-16T06:13:20;23.42;;;21.35;;
68216;SDS011;55037;52.354;4.992;2023-01-16T06:15:47;22.17;;;20.10;;
68216;SDS011;55037;52.354;4.992;2023-01-16T06:18:14;22.77;;;20.55;;
68216;SDS011;55037;52.354;4.992;2023-01-16T06:20:41;22.65;;;20.35;;
68216;SDS011;55037;52.354;4.992;2023-01-16T06:23:09;22.20;;;19.70;;
68216;SDS011;55037;52.354;4.992;2023-01-16T06:25:36;23.48;;;20.55;;
68216;SDS011;55037;52.354;4.992;2023-01-16T06:28:04;21.83;;;19.83;;
68216;SDS011;55037;52.354;4.992;2023-01-16T06:30:31;22.98;;;20.63;;
68216;SDS011;55037;52.354;4.992;2023-01-16T06:32:58;23.23;;;20.98;;
68216;SDS011;55037;52.354;4.992;2023-01-16T06:35:25;21.60;;;19.60;;
68216;SDS011;55037;52.354;4.992;2023-01-16T06:37:52;22.75;;;20.55;;
68216;SDS011;55037;52.354;4.992;2023-01-16T06:40:20;22.50;;;20.27;;
68216;SDS011;55037;52.354;4.992;2023-01-16T06:42:49;23.00;;;20.60;;
68216;SDS011;55037;52.354;4.992;2023-01-16T06:45:16;22.30;;;20.25;;
68216;SDS011;55037;52.354;4.992;2023-01-16T06:47:51;23.23;;;20.75;;
68216;SDS011;55037;52.354;4.992;2023-01-16T06:50:19;22.15;;;20.05;;
68216;SDS011;55037;52.354;4.992;2023-01-16T06:52:47;22.73;;;20.58;;
68216;SDS011;55037;52.354;4.992;2023-01-16T06:55:14;22.67;;;20.57;;
68216;SDS011;55037;52.354;4.992;2023-01-16T06:57:44;22.30;;;20.37;;
68216;SDS011;55037;52.354;4.992;2023-01-16T07:00:12;23.23;;;21.00;;
68216;SDS011;55037;52.354;4.992;2023-01-16T07:02:39;21.75;;;19.63;;
68216;SDS011;55037;52.354;4.992;2023-01-16T07:05:07;22.95;;;20.65;;
68216;SDS011;55037;52.354;4.992;2023-01-16T07:07:36;24.35;;;21.80;;
68216;SDS011;55037;52.354;4.992;2023-01-16T07:10:03;21.85;;;19.65;;
68216;SDS011;55037;52.354;4.992;2023-01-16T07:12:31;22.50;;;20.20;;
68216;SDS011;55037;52.354;4.992;2023-01-16T07:14:58;21.42;;;19.27;;
68216;SDS011;55037;52.354;4.992;2023-01-16T07:17:44;20.98;;;18.92;;
68216;SDS011;55037;52.354;4.992;2023-01-16T07:20:30;23.38;;;18.90;;
68216;SDS011;55037;52.354;4.992;2023-01-16T07:23:18;22.65;;;20.27;;
68216;SDS011;55037;52.354;4.992;2023-01-16T07:25:55;21.63;;;19.30;;
68216;SDS011;55037;52.354;4.992;2023-01-16T07:28:24;22.45;;;20.17;;
68216;SDS011;55037;52.354;4.992;2023-01-16T07:30:52;21.40;;;19.20;;
68216;SDS011;55037;52.354;4.992;2023-01-16T07:33:19;23.48;;;20.63;;
68216;SDS011;55037;52.354;4.992;2023-01-16T07:35:46;21.67;;;19.53;;
68216;SDS011;55037;52.354;4.992;2023-01-16T07:38:14;22.88;;;20.40;;
68216;SDS011;55037;52.354;4.992;2023-01-16T07:40:41;22.13;;;19.90;;
68216;SDS011;55037;52.354;4.992;2023-01-16T07:43:08;21.77;;;19.67;;
68216;SDS011;55037;52.354;4.992;2023-01-16T07:45:35;22.45;;;20.23;;
68216;SDS011;55037;52.354;4.992;2023-01-16T07:48:02;22.53;;;20.63;;
68216;SDS011;55037;52.354;4.992;2023-01-16T07:50:30;23.50;;;21.30;;
68216;SDS011;55037;52.354;4.992;2023-01-16T07:52:57;23.75;;;21.60;;
68216;SDS011;55037;52.354;4.992;2023-01-16T07:55:25;22.27;;;20.20;;
68216;SDS011;55037;52.354;4.992;2023-01-16T07:57:52;22.77;;;20.90;;
68216;SDS011;55037;52.354;4.992;2023-01-16T08:00:19;21.83;;;19.80;;
68216;SDS011;55037;52.354;4.992;2023-01-16T08:02:46;21.95;;;19.98;;
68216;SDS011;55037;52.354;4.992;2023-01-16T08:05:14;21.03;;;19.13;;
68216;SDS011;55037;52.354;4.992;2023-01-16T08:07:41;21.90;;;20.00;;
68216;SDS011;55037;52.354;4.992;2023-01-16T08:10:10;22.23;;;20.25;;
68216;SDS011;55037;52.354;4.992;2023-01-16T08:12:37;22.77;;;20.90;;
68216;SDS011;55037;52.354;4.992;2023-01-16T08:15:06;21.48;;;19.88;;
68216;SDS011;55037;52.354;4.992;2023-01-16T08:17:34;22.37;;;20.60;;
68216;SDS011;55037;52.354;4.992;2023-01-16T08:20:04;21.40;;;19.60;;
68216;SDS011;55037;52.354;4.992;2023-01-16T08:22:31;21.67;;;20.08;;
68216;SDS011;55037;52.354;4.992;2023-01-16T08:24:59;21.98;;;20.20;;
68216;SDS011;55037;52.354;4.992;2023-01-16T08:27:26;23.33;;;21.42;;
68216;SDS011;55037;52.354;4.992;2023-01-16T08:29:53;22.23;;;20.50;;
68216;SDS011;55037;52.354;4.992;2023-01-16T08:32:20;22.27;;;20.42;;
68216;SDS011;55037;52.354;4.992;2023-01-16T08:34:48;23.88;;;22.08;;
68216;SDS011;55037;52.354;4.992;2023-01-16T08:37:15;23.27;;;21.33;;
68216;SDS011;55037;52.354;4.992;2023-01-16T08:39:42;23.50;;;21.67;;
68216;SDS011;55037;52.354;4.992;2023-01-16T08:42:09;23.98;;;21.88;;
68216;SDS011;55037;52.354;4.992;2023-01-16T08:44:57;23.20;;;21.40;;
68216;SDS011;55037;52.354;4.992;2023-01-16T08:47:44;22.10;;;20.42;;
68216;SDS011;55037;52.354;4.992;2023-01-16T08:50:30;23.65;;;21.60;;
68216;SDS011;55037;52.354;4.992;2023-01-16T08:53:16;22.80;;;21.00;;
68216;SDS011;55037;52.354;4.992;2023-01-16T08:55:44;23.70;;;21.60;;
68216;SDS011;55037;52.354;4.992;2023-01-16T08:58:11;22.48;;;20.77;;
68216;SDS011;55037;52.354;4.992;2023-01-16T09:00:38;24.23;;;22.17;;
68216;SDS011;55037;52.354;4.992;2023-01-16T09:03:05;23.45;;;21.52;;
68216;SDS011;55037;52.354;4.992;2023-01-16T09:05:33;23.77;;;21.88;;
68216;SDS011;55037;52.354;4.992;2023-01-16T09:08:00;24.50;;;22.40;;
68216;SDS011;55037;52.354;4.992;2023-01-16T09:10:27;25.38;;;23.10;;
68216;SDS011;55037;52.354;4.992;2023-01-16T09:12:56;24.98;;;22.77;;
68216;SDS011;55037;52.354;4.992;2023-01-16T09:15:42;25.05;;;22.95;;
68216;SDS011;55037;52.354;4.992;2023-01-16T09:18:09;25.00;;;23.00;;
68216;SDS011;55037;52.354;4.992;2023-01-16T09:20:36;25.43;;;23.13;;
68216;SDS011;55037;52.354;4.992;2023-01-16T09:23:04;23.90;;;22.00;;
68216;SDS011;55037;52.354;4.992;2023-01-16T09:25:32;24.08;;;22.17;;
68216;SDS011;55037;52.354;4.992;2023-01-16T09:27:59;24.92;;;22.83;;
68216;SDS011;55037;52.354;4.992;2023-01-16T09:30:27;25.17;;;23.07;;
68216;SDS011;55037;52.354;4.992;2023-01-16T09:32:55;25.08;;;22.90;;
68216;SDS011;55037;52.354;4.992;2023-01-16T09:35:22;26.02;;;23.90;;
68216;SDS011;55037;52.354;4.992;2023-01-16T09:37:49;25.88;;;23.77;;
68216;SDS011;55037;52.354;4.992;2023-01-16T09:40:20;25.73;;;23.63;;
68216;SDS011;55037;52.354;4.992;2023-01-16T09:43:12;26.55;;;24.40;;
68216;SDS011;55037;52.354;4.992;2023-01-16T09:46:04;26.47;;;24.17;;
68216;SDS011;55037;52.354;4.992;2023-01-16T09:51:39;27.30;;;25.10;;
68216;SDS011;55037;52.354;4.992;2023-01-16T09:54:10;27.33;;;25.00;;
68216;SDS011;55037;52.354;4.992;2023-01-16T09:56:58;27.15;;;24.95;;
68216;SDS011;55037;52.354;4.992;2023-01-16T09:59:47;24.43;;;22.27;;
68216;SDS011;55037;52.354;4.992;2023-01-16T10:04:55;26.75;;;24.55;;
68216;SDS011;55037;52.354;4.992;2023-01-16T10:10:14;25.37;;;23.27;;
68216;SDS011;55037;52.354;4.992;2023-01-16T10:13:21;24.08;;;22.08;;
68216;SDS011;55037;52.354;4.992;2023-01-16T10:27:19;23.20;;;21.40;;
68216;SDS011;55037;52.354;4.992;2023-01-16T10:32:56;23.73;;;21.90;;
68216;SDS011;55037;52.354;4.992;2023-01-16T10:35:40;22.75;;;20.95;;
68216;SDS011;55037;52.354;4.992;2023-01-16T10:38:19;23.30;;;21.50;;
68216;SDS011;55037;52.354;4.992;2023-01-16T10:40:51;23.83;;;21.92;;
68216;SDS011;55037;52.354;4.992;2023-01-16T10:43:54;23.17;;;21.33;;
68216;SDS011;55037;52.354;4.992;2023-01-16T10:46:33;20.90;;;19.30;;
68216;SDS011;55037;52.354;4.992;2023-01-16T10:49:19;21.20;;;19.75;;
68216;SDS011;55037;52.354;4.992;2023-01-16T10:51:54;21.25;;;19.75;;
68216;SDS011;55037;52.354;4.992;2023-01-16T10:54:23;21.60;;;19.90;;
68216;SDS011;55037;52.354;4.992;2023-01-16T10:56:51;20.60;;;19.00;;
68216;SDS011;55037;52.354;4.992;2023-01-16T10:59:18;19.35;;;17.85;;
68216;SDS011;55037;52.354;4.992;2023-01-16T11:01:47;20.27;;;18.77;;
68216;SDS011;55037;52.354;4.992;2023-01-16T11:04:17;19.10;;;17.80;;
68216;SDS011;55037;52.354;4.992;2023-01-16T11:06:45;19.25;;;17.95;;
68216;SDS011;55037;52.354;4.992;2023-01-16T11:11:40;19.27;;;17.98;;
68216;SDS011;55037;52.354;4.992;2023-01-16T11:14:34;19.42;;;18.02;;
68216;SDS011;55037;52.354;4.992;2023-01-16T11:20:34;20.10;;;18.70;;
68216;SDS011;55037;52.354;4.992;2023-01-16T11:23:22;18.95;;;17.63;;
68216;SDS011;55037;52.354;4.992;2023-01-16T11:25:49;19.05;;;17.63;;
68216;SDS011;55037;52.354;4.992;2023-01-16T11:28:26;20.38;;;18.88;;
68216;SDS011;55037;52.354;4.992;2023-01-16T11:30:55;18.65;;;17.35;;
68216;SDS011;55037;52.354;4.992;2023-01-16T11:33:25;20.35;;;18.75;;
68216;SDS011;55037;52.354;4.992;2023-01-16T11:36:01;19.73;;;18.30;;
68216;SDS011;55037;52.354;4.992;2023-01-16T11:38:32;20.48;;;18.90;;
68216;SDS011;55037;52.354;4.992;2023-01-16T11:41:01;20.25;;;18.83;;
68216;SDS011;55037;52.354;4.992;2023-01-16T11:43:31;19.02;;;17.60;;
68216;SDS011;55037;52.354;4.992;2023-01-16T11:46:20;20.65;;;19.15;;
68216;SDS011;55037;52.354;4.992;2023-01-16T11:48:55;19.63;;;18.13;;
68216;SDS011;55037;52.354;4.992;2023-01-16T11:51:28;20.30;;;18.80;;
68216;SDS011;55037;52.354;4.992;2023-01-16T11:54:00;20.38;;;18.88;;
68216;SDS011;55037;52.354;4.992;2023-01-16T11:59:26;20.58;;;18.98;;
68216;SDS011;55037;52.354;4.992;2023-01-16T12:02:19;19.83;;;18.17;;
68216;SDS011;55037;52.354;4.992;2023-01-16T12:08:25;22.50;;;20.80;;
68216;SDS011;55037;52.354;4.992;2023-01-16T12:21:49;23.45;;;21.60;;
68216;SDS011;55037;52.354;4.992;2023-01-16T12:24:39;22.15;;;20.30;;
68216;SDS011;55037;52.354;4.992;2023-01-16T12:32:49;23.30;;;21.50;;
68216;SDS011;55037;52.354;4.992;2023-01-16T12:38:02;21.25;;;19.65;;
68216;SDS011;55037;52.354;4.992;2023-01-16T12:43:51;21.77;;;20.17;;
68216;SDS011;55037;52.354;4.992;2023-01-16T12:47:02;23.08;;;21.33;;
68216;SDS011;55037;52.354;4.992;2023-01-16T12:52:36;22.58;;;20.88;;
68216;SDS011;55037;52.354;4.992;2023-01-16T12:58:34;22.40;;;20.60;;
68216;SDS011;55037;52.354;4.992;2023-01-16T13:01:17;22.15;;;20.42;;
68216;SDS011;55037;52.354;4.992;2023-01-16T13:08:59;22.98;;;21.17;;
68216;SDS011;55037;52.354;4.992;2023-01-16T13:11:42;21.88;;;20.20;;
68216;SDS011;55037;52.354;4.992;2023-01-16T13:14:47;21.55;;;19.85;;
68216;SDS011;55037;52.354;4.992;2023-01-16T13:17:22;21.33;;;19.70;;
68216;SDS011;55037;52.354;4.992;2023-01-16T13:19:58;21.67;;;20.08;;
68216;SDS011;55037;52.354;4.992;2023-01-16T13:25:45;22.48;;;20.58;;
68216;SDS011;55037;52.354;4.992;2023-01-16T13:30:41;21.02;;;19.48;;
68216;SDS011;55037;52.354;4.992;2023-01-16T13:33:09;22.02;;;20.33;;
68216;SDS011;55037;52.354;4.992;2023-01-16T13:43:24;22.67;;;20.88;;
68216;SDS011;55037;52.354;4.992;2023-01-16T13:46:23;22.90;;;21.10;;
68216;SDS011;55037;52.354;4.992;2023-01-16T13:48:52;23.77;;;21.67;;
68216;SDS011;55037;52.354;4.992;2023-01-16T13:51:21;24.60;;;22.57;;
68216;SDS011;55037;52.354;4.992;2023-01-16T13:53:51;22.60;;;20.73;;
68216;SDS011;55037;52.354;4.992;2023-01-16T13:56:23;23.05;;;21.15;;
68216;SDS011;55037;52.354;4.992;2023-01-16T14:06:45;24.30;;;22.33;;
68216;SDS011;55037;52.354;4.992;2023-01-16T14:12:43;20.77;;;19.15;;
68216;SDS011;55037;52.354;4.992;2023-01-16T14:15:43;22.13;;;20.42;;
68216;SDS011;55037;52.354;4.992;2023-01-16T14:24:04;21.33;;;19.73;;
68216;SDS011;55037;52.354;4.992;2023-01-16T14:29:32;23.33;;;21.52;;
68216;SDS011;55037;52.354;4.992;2023-01-16T14:34:40;22.65;;;20.95;;
68216;SDS011;55037;52.354;4.992;2023-01-16T14:37:19;22.75;;;20.95;;
68216;SDS011;55037;52.354;4.992;2023-01-16T14:39:51;22.30;;;20.60;;
68216;SDS011;55037;52.354;4.992;2023-01-16T14:45:27;23.43;;;21.63;;
68216;SDS011;55037;52.354;4.992;2023-01-16T14:48:36;25.10;;;23.10;;
68216;SDS011;55037;52.354;4.992;2023-01-16T14:54:19;23.80;;;21.90;;
68216;SDS011;55037;52.354;4.992;2023-01-16T14:57:18;24.05;;;22.10;;
68216;SDS011;55037;52.354;4.992;2023-01-16T15:00:04;24.20;;;22.10;;
68216;SDS011;55037;52.354;4.992;2023-01-16T15:02:49;22.55;;;20.75;;
68216;SDS011;55037;52.354;4.992;2023-01-16T15:05:31;22.27;;;20.50;;
68216;SDS011;55037;52.354;4.992;2023-01-16T15:08:19;22.45;;;20.65;;
68216;SDS011;55037;52.354;4.992;2023-01-16T15:10:55;21.83;;;20.17;;
68216;SDS011;55037;52.354;4.992;2023-01-16T15:13:48;23.55;;;21.75;;
68216;SDS011;55037;52.354;4.992;2023-01-16T15:16:34;22.85;;;21.15;;
68216;SDS011;55037;52.354;4.992;2023-01-16T15:19:21;23.27;;;21.35;;
68216;SDS011;55037;52.354;4.992;2023-01-16T15:22:18;23.77;;;21.88;;
68216;SDS011;55037;52.354;4.992;2023-01-16T15:25:05;23.98;;;22.08;;
68216;SDS011;55037;52.354;4.992;2023-01-16T15:30:50;23.55;;;21.75;;
68216;SDS011;55037;52.354;4.992;2023-01-16T15:33:25;23.80;;;22.00;;
68216;SDS011;55037;52.354;4.992;2023-01-16T15:41:53;25.45;;;23.33;;
68216;SDS011;55037;52.354;4.992;2023-01-16T15:44:42;27.60;;;25.33;;
68216;SDS011;55037;52.354;4.992;2023-01-16T15:47:40;25.73;;;23.63;;
68216;SDS011;55037;52.354;4.992;2023-01-16T15:50:20;25.20;;;23.10;;
68216;SDS011;55037;52.354;4.992;2023-01-16T15:52:48;25.95;;;23.88;;
68216;SDS011;55037;52.354;4.992;2023-01-16T15:55:23;25.77;;;23.75;;
68216;SDS011;55037;52.354;4.992;2023-01-16T15:57:54;25.52;;;23.42;;
68216;SDS011;55037;52.354;4.992;2023-01-16T16:00:29;26.80;;;24.60;;
68216;SDS011;55037;52.354;4.992;2023-01-16T16:03:12;25.67;;;23.47;;
68216;SDS011;55037;52.354;4.992;2023-01-16T16:05:48;25.90;;;23.90;;
68216;SDS011;55037;52.354;4.992;2023-01-16T16:08:22;26.80;;;24.45;;
68216;SDS011;55037;52.354;4.992;2023-01-16T16:10:54;27.15;;;24.80;;
68216;SDS011;55037;52.354;4.992;2023-01-16T16:13:43;26.75;;;24.55;;
68216;SDS011;55037;52.354;4.992;2023-01-16T16:16:24;23.92;;;22.10;;
68216;SDS011;55037;52.354;4.992;2023-01-16T16:19:33;23.02;;;21.27;;
68216;SDS011;55037;52.354;4.992;2023-01-16T16:22:01;19.08;;;17.77;;
68216;SDS011;55037;52.354;4.992;2023-01-16T16:24:53;18.60;;;17.30;;
68216;SDS011;55037;52.354;4.992;2023-01-16T16:27:21;18.70;;;17.40;;
68216;SDS011;55037;52.354;4.992;2023-01-16T16:29:49;19.80;;;18.50;;
68216;SDS011;55037;52.354;4.992;2023-01-16T16:32:18;20.60;;;19.17;;
68216;SDS011;55037;52.354;4.992;2023-01-16T16:34:50;22.00;;;20.50;;
68216;SDS011;55037;52.354;4.992;2023-01-16T16:37:20;22.38;;;20.77;;
68216;SDS011;55037;52.354;4.992;2023-01-16T16:39:54;22.40;;;20.80;;
68216;SDS011;55037;52.354;4.992;2023-01-16T16:47:38;21.20;;;19.77;;
68216;SDS011;55037;52.354;4.992;2023-01-16T16:50:29;20.70;;;19.30;;
68216;SDS011;55037;52.354;4.992;2023-01-16T16:53:04;21.70;;;20.20;;
68216;SDS011;55037;52.354;4.992;2023-01-16T16:55:53;22.00;;;20.40;;
68216;SDS011;55037;52.354;4.992;2023-01-16T16:58:34;21.15;;;19.65;;
68216;SDS011;55037;52.354;4.992;2023-01-16T17:01:12;24.02;;;22.10;;
68216;SDS011;55037;52.354;4.992;2023-01-16T17:03:42;23.15;;;21.45;;
68216;SDS011;55037;52.354;4.992;2023-01-16T17:06:17;21.57;;;20.07;;
68216;SDS011;55037;52.354;4.992;2023-01-16T17:08:55;22.65;;;20.95;;
68216;SDS011;55037;52.354;4.992;2023-01-16T17:11:22;20.67;;;19.17;;
68216;SDS011;55037;52.354;4.992;2023-01-16T17:13:50;21.47;;;19.87;;
68216;SDS011;55037;52.354;4.992;2023-01-16T17:18:48;24.60;;;22.60;;
68216;SDS011;55037;52.354;4.992;2023-01-16T17:21:22;25.65;;;23.65;;
68216;SDS011;55037;52.354;4.992;2023-01-16T17:23:50;23.92;;;21.90;;
68216;SDS011;55037;52.354;4.992;2023-01-16T17:26:17;23.67;;;21.90;;
68216;SDS011;55037;52.354;4.992;2023-01-16T17:28:44;23.30;;;21.50;;
68216;SDS011;55037;52.354;4.992;2023-01-16T17:31:12;23.95;;;22.25;;
68216;SDS011;55037;52.354;4.992;2023-01-16T17:33:41;24.20;;;22.35;;
68216;SDS011;55037;52.354;4.992;2023-01-16T17:36:16;24.50;;;22.70;;
68216;SDS011;55037;52.354;4.992;2023-01-16T17:38:47;22.90;;;21.20;;
68216;SDS011;55037;52.354;4.992;2023-01-16T17:41:15;22.07;;;20.47;;
68216;SDS011;55037;52.354;4.992;2023-01-16T17:43:51;21.63;;;20.02;;
68216;SDS011;55037;52.354;4.992;2023-01-16T17:46:37;19.63;;;18.23;;
68216;SDS011;55037;52.354;4.992;2023-01-16T17:49:04;20.60;;;19.10;;
68216;SDS011;55037;52.354;4.992;2023-01-16T17:51:31;20.80;;;19.30;;